sensor_id;sensor_type;location;lat;lon;timestamp;temperature;humidity
69938;DHT22;57248;47.320;15.998;2022-09-24T00:01:20;4.42;87.18
69938;DHT22;57248;47.320;15.998;2022-09-24T00:03:51;4.39;87.57
69938;DHT22;57248;47.320;15.998;2022-09-24T00:06:18;4.37;87.27
69938;DHT22;57248;47.320;15.998;2022-09-24T00:08:47;4.29;86.83
69938;DHT22;57248;47.320;15.998;2022-09-24T00:11:14;4.24;86.84
69938;DHT22;57248;47.320;15.998;2022-09-24T00:13:40;4.15;88.01
69938;DHT22;57248;47.320;15.998;2022-09-24T00:16:11;4.07;88.74
69938;DHT22;57248;47.320;15.998;2022-09-24T00:18:38;4.10;87.28
69938;DHT22;57248;47.320;15.998;2022-09-24T00:21:15;4.03;86.66
69938;DHT22;57248;47.320;15.998;2022-09-24T00:23:41;4.13;87.51
69938;DHT22;57248;47.320;15.998;2022-09-24T00:26:10;4.16;87.71
69938;DHT22;57248;47.320;15.998;2022-09-24T00:28:55;4.06;87.41
69938;DHT22;57248;47.320;15.998;2022-09-24T00:31:21;4.02;88.69
69938;DHT22;57248;47.320;15.998;2022-09-24T00:33:46;4.09;88.93
69938;DHT22;57248;47.320;15.998;2022-09-24T00:36:17;4.09;88.78
69938;DHT22;57248;47.320;15.998;2022-09-24T00:38:43;4.01;88.63
69938;DHT22;57248;47.320;15.998;2022-09-24T00:41:08;3.96;88.97
69938;DHT22;57248;47.320;15.998;2022-09-24T00:43:36;3.98;88.59
69938;DHT22;57248;47.320;15.998;2022-09-24T00:48:37;3.84;87.90
69938;DHT22;57248;47.320;15.998;2022-09-24T00:51:06;3.82;87.84
69938;DHT22;57248;47.320;15.998;2022-09-24T00:53:33;3.86;87.82
69938;DHT22;57248;47.320;15.998;2022-09-24T00:56:01;3.68;87.60
69938;DHT22;57248;47.320;15.998;2022-09-24T00:58:28;3.61;87.31
69938;DHT22;57248;47.320;15.998;2022-09-24T01:01:03;3.63;87.30
69938;DHT22;57248;47.320;15.998;2022-09-24T01:03:31;3.61;87.53
69938;DHT22;57248;47.320;15.998;2022-09-24T01:05:57;3.64;87.67
69938;DHT22;57248;47.320;15.998;2022-09-24T01:08:23;3.55;86.79
69938;DHT22;57248;47.320;15.998;2022-09-24T01:16:55;3.54;88.37
69938;DHT22;57248;47.320;15.998;2022-09-24T01:30:30;3.45;89.05
69938;DHT22;57248;47.320;15.998;2022-09-24T01:33:01;3.48;89.85
69938;DHT22;57248;47.320;15.998;2022-09-24T01:35:46;3.48;90.22
69938;DHT22;57248;47.320;15.998;2022-09-24T01:38:16;3.48;89.29
69938;DHT22;57248;47.320;15.998;2022-09-24T01:40:43;3.44;88.97
69938;DHT22;57248;47.320;15.998;2022-09-24T01:43:11;3.44;89.41
69938;DHT22;57248;47.320;15.998;2022-09-24T01:45:39;3.43;89.23
69938;DHT22;57248;47.320;15.998;2022-09-24T01:48:05;3.34;88.35
69938;DHT22;57248;47.320;15.998;2022-09-24T01:50:42;3.28;88.55
69938;DHT22;57248;47.320;15.998;2022-09-24T01:53:18;3.19;88.65
69938;DHT22;57248;47.320;15.998;2022-09-24T01:55:48;3.22;89.74
69938;DHT22;57248;47.320;15.998;2022-09-24T01:58:32;3.30;89.89
69938;DHT22;57248;47.320;15.998;2022-09-24T02:01:13;3.26;89.19
69938;DHT22;57248;47.320;15.998;2022-09-24T02:03:50;3.22;89.14
69938;DHT22;57248;47.320;15.998;2022-09-24T02:06:22;3.20;89.19
69938;DHT22;57248;47.320;15.998;2022-09-24T02:08:50;3.16;89.24
69938;DHT22;57248;47.320;15.998;2022-09-24T02:11:20;3.26;90.15
69938;DHT22;57248;47.320;15.998;2022-09-24T02:14:11;3.07;88.96
69938;DHT22;57248;47.320;15.998;2022-09-24T02:16:46;3.13;89.48
69938;DHT22;57248;47.320;15.998;2022-09-24T02:19:18;3.06;89.12
69938;DHT22;57248;47.320;15.998;2022-09-24T02:21:46;2.86;89.07
69938;DHT22;57248;47.320;15.998;2022-09-24T02:24:23;2.93;89.63
69938;DHT22;57248;47.320;15.998;2022-09-24T02:26:50;2.97;89.67
69938;DHT22;57248;47.320;15.998;2022-09-24T02:29:15;2.97;88.88
69938;DHT22;57248;47.320;15.998;2022-09-24T02:31:47;2.96;89.38
69938;DHT22;57248;47.320;15.998;2022-09-24T02:34:18;2.88;89.46
69938;DHT22;57248;47.320;15.998;2022-09-24T02:36:54;2.86;88.80
69938;DHT22;57248;47.320;15.998;2022-09-24T02:39:22;2.89;89.96
69938;DHT22;57248;47.320;15.998;2022-09-24T02:41:48;2.86;88.78
69938;DHT22;57248;47.320;15.998;2022-09-24T02:44:15;2.71;89.18
69938;DHT22;57248;47.320;15.998;2022-09-24T02:46:41;2.61;90.70
69938;DHT22;57248;47.320;15.998;2022-09-24T02:49:08;2.72;90.17
69938;DHT22;57248;47.320;15.998;2022-09-24T02:51:34;2.65;90.96
69938;DHT22;57248;47.320;15.998;2022-09-24T02:53:59;2.72;90.08
69938;DHT22;57248;47.320;15.998;2022-09-24T02:56:29;2.61;91.60
69938;DHT22;57248;47.320;15.998;2022-09-24T02:58:54;2.68;92.08
69938;DHT22;57248;47.320;15.998;2022-09-24T03:01:20;2.66;90.03
69938;DHT22;57248;47.320;15.998;2022-09-24T03:03:47;2.72;90.72
69938;DHT22;57248;47.320;15.998;2022-09-24T03:06:13;2.62;90.12
69938;DHT22;57248;47.320;15.998;2022-09-24T03:08:40;2.62;90.29
69938;DHT22;57248;47.320;15.998;2022-09-24T03:11:07;2.64;90.07
69938;DHT22;57248;47.320;15.998;2022-09-24T03:13:32;2.65;90.45
69938;DHT22;57248;47.320;15.998;2022-09-24T03:15:58;2.72;90.81
69938;DHT22;57248;47.320;15.998;2022-09-24T03:18:23;2.56;89.90
69938;DHT22;57248;47.320;15.998;2022-09-24T03:20:57;2.56;91.42
69938;DHT22;57248;47.320;15.998;2022-09-24T03:23:23;2.58;90.81
69938;DHT22;57248;47.320;15.998;2022-09-24T03:25:49;2.56;90.79
69938;DHT22;57248;47.320;15.998;2022-09-24T03:28:15;2.65;91.67
69938;DHT22;57248;47.320;15.998;2022-09-24T03:30:41;2.62;90.60
69938;DHT22;57248;47.320;15.998;2022-09-24T03:35:59;2.56;92.77
69938;DHT22;57248;47.320;15.998;2022-09-24T03:38:25;2.72;92.26
69938;DHT22;57248;47.320;15.998;2022-09-24T03:40:51;2.62;90.63
69938;DHT22;57248;47.320;15.998;2022-09-24T03:43:16;2.58;90.48
69938;DHT22;57248;47.320;15.998;2022-09-24T03:45:42;2.61;90.67
69938;DHT22;57248;47.320;15.998;2022-09-24T03:48:07;2.45;90.64
69938;DHT22;57248;47.320;15.998;2022-09-24T03:50:37;2.48;90.46
69938;DHT22;57248;47.320;15.998;2022-09-24T03:53:03;2.38;90.39
69938;DHT22;57248;47.320;15.998;2022-09-24T03:55:29;2.38;92.47
69938;DHT22;57248;47.320;15.998;2022-09-24T03:57:54;2.49;91.90
69938;DHT22;57248;47.320;15.998;2022-09-24T04:00:20;2.31;92.85
69938;DHT22;57248;47.320;15.998;2022-09-24T04:02:48;2.33;93.86
69938;DHT22;57248;47.320;15.998;2022-09-24T04:05:14;2.44;94.49
69938;DHT22;57248;47.320;15.998;2022-09-24T04:07:41;2.51;94.07
69938;DHT22;57248;47.320;15.998;2022-09-24T04:10:07;2.45;92.70
69938;DHT22;57248;47.320;15.998;2022-09-24T04:12:33;2.46;92.21
69938;DHT22;57248;47.320;15.998;2022-09-24T04:14:58;2.44;91.42
69938;DHT22;57248;47.320;15.998;2022-09-24T04:17:27;2.41;92.44
69938;DHT22;57248;47.320;15.998;2022-09-24T04:19:56;2.48;91.66
69938;DHT22;57248;47.320;15.998;2022-09-24T04:22:22;2.44;91.61
69938;DHT22;57248;47.320;15.998;2022-09-24T04:24:48;2.41;91.44
69938;DHT22;57248;47.320;15.998;2022-09-24T04:27:15;2.37;91.10
69938;DHT22;57248;47.320;15.998;2022-09-24T04:29:41;2.48;92.17
69938;DHT22;57248;47.320;15.998;2022-09-24T04:32:06;2.37;91.94
69938;DHT22;57248;47.320;15.998;2022-09-24T04:34:32;2.33;93.50
69938;DHT22;57248;47.320;15.998;2022-09-24T04:36:57;2.34;92.02
69938;DHT22;57248;47.320;15.998;2022-09-24T04:39:23;2.42;92.05
69938;DHT22;57248;47.320;15.998;2022-09-24T04:41:54;2.45;93.69
69938;DHT22;57248;47.320;15.998;2022-09-24T04:44:20;2.37;93.89
69938;DHT22;57248;47.320;15.998;2022-09-24T04:46:46;2.46;94.33
69938;DHT22;57248;47.320;15.998;2022-09-24T04:49:12;2.55;93.97
69938;DHT22;57248;47.320;15.998;2022-09-24T04:51:38;2.72;93.28
69938;DHT22;57248;47.320;15.998;2022-09-24T04:54:04;2.66;92.08
69938;DHT22;57248;47.320;15.998;2022-09-24T04:56:30;2.69;92.06
69938;DHT22;57248;47.320;15.998;2022-09-24T04:58:56;2.81;92.00
69938;DHT22;57248;47.320;15.998;2022-09-24T05:01:22;2.78;91.79
69938;DHT22;57248;47.320;15.998;2022-09-24T05:03:48;2.78;90.92
69938;DHT22;57248;47.320;15.998;2022-09-24T05:06:14;2.91;91.73
69938;DHT22;57248;47.320;15.998;2022-09-24T05:08:40;2.95;91.36
69938;DHT22;57248;47.320;15.998;2022-09-24T05:11:05;3.00;91.26
69938;DHT22;57248;47.320;15.998;2022-09-24T05:13:31;3.02;90.55
69938;DHT22;57248;47.320;15.998;2022-09-24T05:15:57;3.09;91.40
69938;DHT22;57248;47.320;15.998;2022-09-24T05:18:25;3.17;90.38
69938;DHT22;57248;47.320;15.998;2022-09-24T05:20:51;3.20;91.44
69938;DHT22;57248;47.320;15.998;2022-09-24T05:23:17;3.37;90.48
69938;DHT22;57248;47.320;15.998;2022-09-24T05:25:42;3.51;90.98
69938;DHT22;57248;47.320;15.998;2022-09-24T05:28:28;3.70;90.21
69938;DHT22;57248;47.320;15.998;2022-09-24T05:30:57;3.72;90.08
69938;DHT22;57248;47.320;15.998;2022-09-24T05:33:22;3.89;89.86
69938;DHT22;57248;47.320;15.998;2022-09-24T05:35:55;4.05;89.28
69938;DHT22;57248;47.320;15.998;2022-09-24T05:38:21;4.19;88.15
69938;DHT22;57248;47.320;15.998;2022-09-24T05:40:47;4.42;89.12
69938;DHT22;57248;47.320;15.998;2022-09-24T05:43:13;4.42;89.33
69938;DHT22;57248;47.320;15.998;2022-09-24T05:45:39;4.50;89.76
69938;DHT22;57248;47.320;15.998;2022-09-24T05:48:06;4.68;89.88
69938;DHT22;57248;47.320;15.998;2022-09-24T05:50:33;4.83;90.10
69938;DHT22;57248;47.320;15.998;2022-09-24T05:53:00;4.87;90.54
69938;DHT22;57248;47.320;15.998;2022-09-24T05:55:26;4.91;91.22
69938;DHT22;57248;47.320;15.998;2022-09-24T05:57:53;5.11;90.78
69938;DHT22;57248;47.320;15.998;2022-09-24T06:00:18;5.28;90.74
69938;DHT22;57248;47.320;15.998;2022-09-24T06:02:44;5.44;90.42
69938;DHT22;57248;47.320;15.998;2022-09-24T06:05:10;5.52;90.41
69938;DHT22;57248;47.320;15.998;2022-09-24T06:07:36;7.42;97.55
69938;DHT22;57248;47.320;15.998;2022-09-24T06:10:03;6.38;88.37
69938;DHT22;57248;47.320;15.998;2022-09-24T06:12:29;6.21;88.32
69938;DHT22;57248;47.320;15.998;2022-09-24T06:14:59;8.06;96.11
69938;DHT22;57248;47.320;15.998;2022-09-24T06:17:25;10.89;90.47
69938;DHT22;57248;47.320;15.998;2022-09-24T06:19:51;10.94;88.69
69938;DHT22;57248;47.320;15.998;2022-09-24T06:22:18;9.82;81.36
69938;DHT22;57248;47.320;15.998;2022-09-24T06:24:44;8.84;82.52
69938;DHT22;57248;47.320;15.998;2022-09-24T06:27:10;8.36;83.22
69938;DHT22;57248;47.320;15.998;2022-09-24T06:29:35;8.40;83.83
69938;DHT22;57248;47.320;15.998;2022-09-24T06:32:01;8.36;83.08
69938;DHT22;57248;47.320;15.998;2022-09-24T06:34:27;8.72;83.08
69938;DHT22;57248;47.320;15.998;2022-09-24T06:36:53;8.93;82.05
69938;DHT22;57248;47.320;15.998;2022-09-24T06:39:19;8.99;81.32
69938;DHT22;57248;47.320;15.998;2022-09-24T06:41:45;9.44;80.61
69938;DHT22;57248;47.320;15.998;2022-09-24T06:44:13;9.81;79.67
69938;DHT22;57248;47.320;15.998;2022-09-24T06:46:39;10.16;78.33
69938;DHT22;57248;47.320;15.998;2022-09-24T06:49:04;10.63;77.97
69938;DHT22;57248;47.320;15.998;2022-09-24T06:51:30;11.04;77.50
69938;DHT22;57248;47.320;15.998;2022-09-24T06:53:55;10.64;77.71
69938;DHT22;57248;47.320;15.998;2022-09-24T06:56:20;10.05;78.92
69938;DHT22;57248;47.320;15.998;2022-09-24T06:58:46;10.06;79.08
69938;DHT22;57248;47.320;15.998;2022-09-24T07:01:11;10.80;77.97
69938;DHT22;57248;47.320;15.998;2022-09-24T07:03:38;11.31;75.35
69938;DHT22;57248;47.320;15.998;2022-09-24T07:06:04;11.38;74.63
69938;DHT22;57248;47.320;15.998;2022-09-24T07:08:30;11.86;75.29
69938;DHT22;57248;47.320;15.998;2022-09-24T07:10:56;12.48;71.34
69938;DHT22;57248;47.320;15.998;2022-09-24T07:13:22;12.69;72.15
69938;DHT22;57248;47.320;15.998;2022-09-24T07:15:50;13.19;70.49
69938;DHT22;57248;47.320;15.998;2022-09-24T07:18:16;13.30;69.19
69938;DHT22;57248;47.320;15.998;2022-09-24T07:20:42;13.38;69.71
69938;DHT22;57248;47.320;15.998;2022-09-24T07:23:09;13.77;70.02
69938;DHT22;57248;47.320;15.998;2022-09-24T07:25:36;14.19;65.92
69938;DHT22;57248;47.320;15.998;2022-09-24T07:28:09;14.00;67.76
69938;DHT22;57248;47.320;15.998;2022-09-24T07:30:36;14.59;67.12
69938;DHT22;57248;47.320;15.998;2022-09-24T07:33:02;15.23;65.45
69938;DHT22;57248;47.320;15.998;2022-09-24T07:35:28;15.18;62.33
69938;DHT22;57248;47.320;15.998;2022-09-24T07:38:00;15.31;61.87
69938;DHT22;57248;47.320;15.998;2022-09-24T07:40:27;15.68;60.33
69938;DHT22;57248;47.320;15.998;2022-09-24T07:42:53;15.51;61.33
69938;DHT22;57248;47.320;15.998;2022-09-24T07:45:20;16.21;58.64
69938;DHT22;57248;47.320;15.998;2022-09-24T07:47:46;16.18;59.25
69938;DHT22;57248;47.320;15.998;2022-09-24T07:50:12;16.50;58.97
69938;DHT22;57248;47.320;15.998;2022-09-24T07:52:38;16.10;59.78
69938;DHT22;57248;47.320;15.998;2022-09-24T07:55:04;16.09;58.64
69938;DHT22;57248;47.320;15.998;2022-09-24T07:57:30;16.68;56.27
69938;DHT22;57248;47.320;15.998;2022-09-24T07:59:55;16.99;58.51
69938;DHT22;57248;47.320;15.998;2022-09-24T08:02:21;18.02;55.27
69938;DHT22;57248;47.320;15.998;2022-09-24T08:04:46;17.70;54.47
69938;DHT22;57248;47.320;15.998;2022-09-24T08:07:12;18.57;51.95
69938;DHT22;57248;47.320;15.998;2022-09-24T08:09:38;18.05;51.55
69938;DHT22;57248;47.320;15.998;2022-09-24T08:12:04;18.43;50.81
69938;DHT22;57248;47.320;15.998;2022-09-24T08:14:30;19.45;48.04
69938;DHT22;57248;47.320;15.998;2022-09-24T08:16:56;20.72;46.01
69938;DHT22;57248;47.320;15.998;2022-09-24T08:19:21;20.64;44.70
69938;DHT22;57248;47.320;15.998;2022-09-24T08:21:47;21.71;42.93
69938;DHT22;57248;47.320;15.998;2022-09-24T08:24:14;21.47;41.64
69938;DHT22;57248;47.320;15.998;2022-09-24T08:26:40;22.55;39.98
69938;DHT22;57248;47.320;15.998;2022-09-24T08:29:06;21.96;41.51
69938;DHT22;57248;47.320;15.998;2022-09-24T08:31:32;22.49;39.73
69938;DHT22;57248;47.320;15.998;2022-09-24T08:34:01;22.45;40.13
69938;DHT22;57248;47.320;15.998;2022-09-24T08:36:26;24.71;37.05
69938;DHT22;57248;47.320;15.998;2022-09-24T08:38:53;25.59;35.78
69938;DHT22;57248;47.320;15.998;2022-09-24T08:44:02;24.95;34.22
69938;DHT22;57248;47.320;15.998;2022-09-24T08:46:34;26.30;34.93
69938;DHT22;57248;47.320;15.998;2022-09-24T08:50:00;27.36;32.13
69938;DHT22;57248;47.320;15.998;2022-09-24T08:54:47;26.48;33.58
69938;DHT22;57248;47.320;15.998;2022-09-24T08:57:16;27.29;32.14
69938;DHT22;57248;47.320;15.998;2022-09-24T08:59:51;28.39;31.45
69938;DHT22;57248;47.320;15.998;2022-09-24T09:02:45;28.09;32.99
69938;DHT22;57248;47.320;15.998;2022-09-24T09:05:52;29.11;30.01
69938;DHT22;57248;47.320;15.998;2022-09-24T09:11:12;29.76;29.97
69938;DHT22;57248;47.320;15.998;2022-09-24T09:13:42;28.00;31.30
69938;DHT22;57248;47.320;15.998;2022-09-24T09:16:26;28.29;30.69
69938;DHT22;57248;47.320;15.998;2022-09-24T09:18:56;26.12;33.33
69938;DHT22;57248;47.320;15.998;2022-09-24T09:23:58;25.42;34.68
69938;DHT22;57248;47.320;15.998;2022-09-24T09:26:26;25.17;35.07
69938;DHT22;57248;47.320;15.998;2022-09-24T09:28:57;25.90;34.92
69938;DHT22;57248;47.320;15.998;2022-09-24T09:31:46;24.44;35.94
69938;DHT22;57248;47.320;15.998;2022-09-24T09:34:46;24.53;37.81
69938;DHT22;57248;47.320;15.998;2022-09-24T09:37:32;25.04;37.15
69938;DHT22;57248;47.320;15.998;2022-09-24T09:43:11;22.95;39.84
69938;DHT22;57248;47.320;15.998;2022-09-24T09:48:23;22.59;40.30
69938;DHT22;57248;47.320;15.998;2022-09-24T09:50:54;22.68;40.54
69938;DHT22;57248;47.320;15.998;2022-09-24T09:53:27;22.32;41.77
69938;DHT22;57248;47.320;15.998;2022-09-24T09:55:58;21.91;42.14
69938;DHT22;57248;47.320;15.998;2022-09-24T09:58:25;21.64;43.33
69938;DHT22;57248;47.320;15.998;2022-09-24T10:00:52;20.91;44.10
69938;DHT22;57248;47.320;15.998;2022-09-24T10:03:47;21.05;43.74
69938;DHT22;57248;47.320;15.998;2022-09-24T10:06:23;20.08;45.60
69938;DHT22;57248;47.320;15.998;2022-09-24T10:08:49;20.75;44.30
69938;DHT22;57248;47.320;15.998;2022-09-24T10:11:16;20.00;45.68
69938;DHT22;57248;47.320;15.998;2022-09-24T10:13:41;20.24;45.73
69938;DHT22;57248;47.320;15.998;2022-09-24T10:16:08;20.44;46.05
69938;DHT22;57248;47.320;15.998;2022-09-24T10:18:48;20.53;45.39
69938;DHT22;57248;47.320;15.998;2022-09-24T10:21:28;20.36;45.41
69938;DHT22;57248;47.320;15.998;2022-09-24T10:23:59;20.09;45.53
69938;DHT22;57248;47.320;15.998;2022-09-24T10:26:40;20.65;44.95
69938;DHT22;57248;47.320;15.998;2022-09-24T10:29:32;21.90;41.66
69938;DHT22;57248;47.320;15.998;2022-09-24T10:32:18;23.84;38.41
69938;DHT22;57248;47.320;15.998;2022-09-24T10:35:01;24.56;37.00
69938;DHT22;57248;47.320;15.998;2022-09-24T10:37:27;24.67;39.67
69938;DHT22;57248;47.320;15.998;2022-09-24T10:40:12;24.70;37.17
69938;DHT22;57248;47.320;15.998;2022-09-24T10:42:39;24.88;36.73
69938;DHT22;57248;47.320;15.998;2022-09-24T10:45:09;23.99;38.42
69938;DHT22;57248;47.320;15.998;2022-09-24T10:55:31;24.94;36.27
69938;DHT22;57248;47.320;15.998;2022-09-24T10:58:06;26.14;35.16
69938;DHT22;57248;47.320;15.998;2022-09-24T11:00:40;25.01;36.11
69938;DHT22;57248;47.320;15.998;2022-09-24T11:06:22;24.04;37.49
69938;DHT22;57248;47.320;15.998;2022-09-24T11:20:29;25.38;35.86
69938;DHT22;57248;47.320;15.998;2022-09-24T11:40:35;25.69;34.92
69938;DHT22;57248;47.320;15.998;2022-09-24T11:49:04;29.57;31.92
69938;DHT22;57248;47.320;15.998;2022-09-24T11:54:42;26.28;33.34
69938;DHT22;57248;47.320;15.998;2022-09-24T11:57:21;25.85;33.72
69938;DHT22;57248;47.320;15.998;2022-09-24T12:00:14;25.70;34.81
69938;DHT22;57248;47.320;15.998;2022-09-24T12:03:05;27.88;32.14
69938;DHT22;57248;47.320;15.998;2022-09-24T12:05:36;28.12;31.88
69938;DHT22;57248;47.320;15.998;2022-09-24T12:08:15;25.31;35.36
69938;DHT22;57248;47.320;15.998;2022-09-24T12:11:00;26.23;34.98
69938;DHT22;57248;47.320;15.998;2022-09-24T12:13:45;27.65;33.43
69938;DHT22;57248;47.320;15.998;2022-09-24T12:16:15;25.03;37.29
69938;DHT22;57248;47.320;15.998;2022-09-24T12:18:54;28.74;31.01
69938;DHT22;57248;47.320;15.998;2022-09-24T12:21:36;26.18;34.37
69938;DHT22;57248;47.320;15.998;2022-09-24T12:26:49;24.01;37.95
69938;DHT22;57248;47.320;15.998;2022-09-24T12:35:36;26.40;35.18
69938;DHT22;57248;47.320;15.998;2022-09-24T12:38:13;26.03;36.25
69938;DHT22;57248;47.320;15.998;2022-09-24T12:43:44;25.08;37.78
69938;DHT22;57248;47.320;15.998;2022-09-24T12:46:21;27.19;35.02
69938;DHT22;57248;47.320;15.998;2022-09-24T12:48:48;26.37;36.00
69938;DHT22;57248;47.320;15.998;2022-09-24T12:51:15;26.43;36.56
69938;DHT22;57248;47.320;15.998;2022-09-24T12:53:55;25.43;37.02
69938;DHT22;57248;47.320;15.998;2022-09-24T12:56:26;24.87;37.69
69938;DHT22;57248;47.320;15.998;2022-09-24T12:58:54;26.01;36.86
69938;DHT22;57248;47.320;15.998;2022-09-24T13:06:38;25.28;37.73
69938;DHT22;57248;47.320;15.998;2022-09-24T13:09:36;24.73;38.38
69938;DHT22;57248;47.320;15.998;2022-09-24T13:14:42;25.15;38.67
69938;DHT22;57248;47.320;15.998;2022-09-24T13:17:13;25.34;38.05
69938;DHT22;57248;47.320;15.998;2022-09-24T13:19:44;26.71;35.31
69938;DHT22;57248;47.320;15.998;2022-09-24T13:22:25;26.96;35.87
69938;DHT22;57248;47.320;15.998;2022-09-24T13:25:04;26.25;35.40
69938;DHT22;57248;47.320;15.998;2022-09-24T13:32:57;27.90;35.81
69938;DHT22;57248;47.320;15.998;2022-09-24T13:35:41;28.36;33.35
69938;DHT22;57248;47.320;15.998;2022-09-24T13:38:20;28.81;32.82
69938;DHT22;57248;47.320;15.998;2022-09-24T13:40:58;27.88;32.81
69938;DHT22;57248;47.320;15.998;2022-09-24T13:43:38;29.03;31.50
69938;DHT22;57248;47.320;15.998;2022-09-24T13:46:13;26.88;35.16
69938;DHT22;57248;47.320;15.998;2022-09-24T13:48:50;27.65;32.48
69938;DHT22;57248;47.320;15.998;2022-09-24T13:51:21;27.53;33.23
69938;DHT22;57248;47.320;15.998;2022-09-24T13:54:03;26.64;34.91
69938;DHT22;57248;47.320;15.998;2022-09-24T13:56:30;25.98;35.74
69938;DHT22;57248;47.320;15.998;2022-09-24T13:59:10;25.49;36.47
69938;DHT22;57248;47.320;15.998;2022-09-24T14:01:42;23.51;40.92
69938;DHT22;57248;47.320;15.998;2022-09-24T14:04:18;23.37;40.24
69938;DHT22;57248;47.320;15.998;2022-09-24T14:06:56;23.41;40.80
69938;DHT22;57248;47.320;15.998;2022-09-24T14:11:52;22.75;42.80
69938;DHT22;57248;47.320;15.998;2022-09-24T14:14:20;23.06;41.81
69938;DHT22;57248;47.320;15.998;2022-09-24T14:16:47;23.11;41.86
69938;DHT22;57248;47.320;15.998;2022-09-24T14:19:14;23.44;41.49
69938;DHT22;57248;47.320;15.998;2022-09-24T14:24:17;22.00;43.58
69938;DHT22;57248;47.320;15.998;2022-09-24T14:29:16;22.58;43.26
69938;DHT22;57248;47.320;15.998;2022-09-24T14:31:54;21.98;44.70
69938;DHT22;57248;47.320;15.998;2022-09-24T14:36:56;22.44;43.89
69938;DHT22;57248;47.320;15.998;2022-09-24T14:39:26;22.08;45.98
69938;DHT22;57248;47.320;15.998;2022-09-24T14:41:53;21.69;44.60
69938;DHT22;57248;47.320;15.998;2022-09-24T14:44:27;20.82;47.01
69938;DHT22;57248;47.320;15.998;2022-09-24T14:46:57;20.90;48.31
69938;DHT22;57248;47.320;15.998;2022-09-24T14:49:41;20.81;48.61
69938;DHT22;57248;47.320;15.998;2022-09-24T14:52:35;20.27;48.88
69938;DHT22;57248;47.320;15.998;2022-09-24T14:55:15;20.06;49.88
69938;DHT22;57248;47.320;15.998;2022-09-24T14:57:42;20.03;50.63
69938;DHT22;57248;47.320;15.998;2022-09-24T15:02:47;20.41;50.09
69938;DHT22;57248;47.320;15.998;2022-09-24T15:05:15;20.44;50.58
69938;DHT22;57248;47.320;15.998;2022-09-24T15:07:40;20.51;50.51
69938;DHT22;57248;47.320;15.998;2022-09-24T15:10:17;19.83;51.65
69938;DHT22;57248;47.320;15.998;2022-09-24T15:12:46;20.14;51.84
69938;DHT22;57248;47.320;15.998;2022-09-24T15:17:45;20.32;51.83
69938;DHT22;57248;47.320;15.998;2022-09-24T15:20:11;20.03;51.71
69938;DHT22;57248;47.320;15.998;2022-09-24T15:22:37;19.36;52.81
69938;DHT22;57248;47.320;15.998;2022-09-24T15:25:03;19.58;52.98
69938;DHT22;57248;47.320;15.998;2022-09-24T15:27:32;19.50;53.47
69938;DHT22;57248;47.320;15.998;2022-09-24T15:30:00;19.28;53.85
69938;DHT22;57248;47.320;15.998;2022-09-24T15:32:30;19.11;54.60
69938;DHT22;57248;47.320;15.998;2022-09-24T15:34:57;19.24;54.49
69938;DHT22;57248;47.320;15.998;2022-09-24T15:37:26;19.36;54.12
69938;DHT22;57248;47.320;15.998;2022-09-24T15:39:56;19.57;54.62
69938;DHT22;57248;47.320;15.998;2022-09-24T15:42:24;19.62;53.84
69938;DHT22;57248;47.320;15.998;2022-09-24T15:44:50;19.59;54.20
69938;DHT22;57248;47.320;15.998;2022-09-24T15:47:16;19.21;55.16
69938;DHT22;57248;47.320;15.998;2022-09-24T15:49:43;19.42;54.69
69938;DHT22;57248;47.320;15.998;2022-09-24T15:52:23;19.03;57.31
69938;DHT22;57248;47.320;15.998;2022-09-24T15:54:51;19.02;58.13
69938;DHT22;57248;47.320;15.998;2022-09-24T15:57:17;19.10;57.04
69938;DHT22;57248;47.320;15.998;2022-09-24T15:59:42;19.04;58.20
69938;DHT22;57248;47.320;15.998;2022-09-24T16:02:16;18.96;57.89
69938;DHT22;57248;47.320;15.998;2022-09-24T16:04:42;18.90;57.40
69938;DHT22;57248;47.320;15.998;2022-09-24T16:07:07;18.73;58.10
69938;DHT22;57248;47.320;15.998;2022-09-24T16:09:33;18.66;58.45
69938;DHT22;57248;47.320;15.998;2022-09-24T16:11:58;18.63;59.32
69938;DHT22;57248;47.320;15.998;2022-09-24T16:14:25;18.49;60.40
69938;DHT22;57248;47.320;15.998;2022-09-24T16:16:51;18.22;61.85
69938;DHT22;57248;47.320;15.998;2022-09-24T16:19:17;18.25;61.03
69938;DHT22;57248;47.320;15.998;2022-09-24T16:21:42;18.31;60.61
69938;DHT22;57248;47.320;15.998;2022-09-24T16:24:08;18.16;60.89
69938;DHT22;57248;47.320;15.998;2022-09-24T16:26:33;18.11;61.80
69938;DHT22;57248;47.320;15.998;2022-09-24T16:29:03;17.90;62.98
69938;DHT22;57248;47.320;15.998;2022-09-24T16:31:29;17.49;64.10
69938;DHT22;57248;47.320;15.998;2022-09-24T16:33:54;17.22;63.87
69938;DHT22;57248;47.320;15.998;2022-09-24T16:36:21;17.36;62.90
69938;DHT22;57248;47.320;15.998;2022-09-24T16:38:48;17.43;62.24
69938;DHT22;57248;47.320;15.998;2022-09-24T16:41:14;17.35;62.17
69938;DHT22;57248;47.320;15.998;2022-09-24T16:43:41;17.01;63.81
69938;DHT22;57248;47.320;15.998;2022-09-24T16:46:08;17.05;63.90
69938;DHT22;57248;47.320;15.998;2022-09-24T16:48:34;16.96;64.20
69938;DHT22;57248;47.320;15.998;2022-09-24T16:51:05;16.85;64.46
69938;DHT22;57248;47.320;15.998;2022-09-24T16:53:32;16.74;64.67
69938;DHT22;57248;47.320;15.998;2022-09-24T16:56:17;16.64;65.44
69938;DHT22;57248;47.320;15.998;2022-09-24T16:58:44;16.60;65.17
69938;DHT22;57248;47.320;15.998;2022-09-24T17:01:12;16.13;67.50
69938;DHT22;57248;47.320;15.998;2022-09-24T17:03:38;16.16;67.42
69938;DHT22;57248;47.320;15.998;2022-09-24T17:06:05;16.28;66.64
69938;DHT22;57248;47.320;15.998;2022-09-24T17:08:34;16.30;66.90
69938;DHT22;57248;47.320;15.998;2022-09-24T17:11:19;16.23;67.22
69938;DHT22;57248;47.320;15.998;2022-09-24T17:13:44;15.92;67.75
69938;DHT22;57248;47.320;15.998;2022-09-24T17:16:12;16.07;66.89
69938;DHT22;57248;47.320;15.998;2022-09-24T17:18:38;15.95;68.84
69938;DHT22;57248;47.320;15.998;2022-09-24T17:21:07;15.87;68.45
69938;DHT22;57248;47.320;15.998;2022-09-24T17:23:33;15.76;69.06
69938;DHT22;57248;47.320;15.998;2022-09-24T17:26:04;15.72;69.16
69938;DHT22;57248;47.320;15.998;2022-09-24T17:28:34;15.75;68.85
69938;DHT22;57248;47.320;15.998;2022-09-24T17:31:02;15.58;70.29
69938;DHT22;57248;47.320;15.998;2022-09-24T17:33:28;15.65;69.04
69938;DHT22;57248;47.320;15.998;2022-09-24T17:35:55;15.51;70.26
69938;DHT22;57248;47.320;15.998;2022-09-24T17:38:21;15.52;69.69
69938;DHT22;57248;47.320;15.998;2022-09-24T17:41:04;15.42;70.34
69938;DHT22;57248;47.320;15.998;2022-09-24T17:43:32;15.18;72.32
69938;DHT22;57248;47.320;15.998;2022-09-24T17:46:03;15.21;71.09
69938;DHT22;57248;47.320;15.998;2022-09-24T17:48:31;15.12;71.45